| Date | Time | Temp. (oF) | Dew Point (oF) | Rel. Hum. (%) | Press. (in.) | Wind Dir. | Wind Speed (mph) | Hourly Rainfall (in.) |
|
|---|---|---|---|---|---|---|---|---|---|
| 1 | 11/03 | 00:00 | 43 | 41 | 96 | 30.10 | SW | 0 | 0.00 |
| 2 | 11/02 | 23:00 | 43 | 41 | 93 | 30.10 | SSE | 0 | 0.00 |
| 3 | 11/02 | 22:00 | 44 | 41 | 91 | 30.10 | SSE | 0 | 0.00 |
| 4 | 11/02 | 21:00 | 47 | 43 | 87 | 30.11 | SSE | 0 | 0.00 |
| 5 | 11/02 | 20:00 | 49 | 43 | 82 | 30.12 | SE | 0 | 0.00 |
| 6 | 11/02 | 19:00 | 52 | 45 | 77 | 30.12 | SE | 0 | 0.00 |
| 7 | 11/02 | 18:00 | 54 | 44 | 69 | 30.12 | SE | 0 | 0.00 |
| 8 | 11/02 | 17:00 | 56 | 43 | 64 | 30.10 | SE | 0 | 0.00 |
| 9 | 11/02 | 16:00 | 59 | 44 | 59 | 30.09 | SW | 0 | 0.00 |
| 10 | 11/02 | 15:00 | 59 | 45 | 60 | 30.11 | NE | 6 | 0.00 |
| 11 | 11/02 | 14:00 | 60 | 46 | 61 | 30.11 | E | 4 | 0.00 |
| 12 | 11/02 | 13:00 | 59 | 45 | 62 | 30.12 | SW | 0 | 0.00 |
| 13 | 11/02 | 12:00 | 57 | 45 | 66 | 30.16 | SSE | 0 | 0.00 |
| 14 | 11/02 | 11:00 | 54 | 44 | 70 | 30.19 | E | 4 | 0.00 |
| 15 | 11/02 | 10:00 | 52 | 41 | 68 | 30.20 | E | 4 | 0.00 |
| 16 | miss | miss | miss | miss | miss | miss | miss | miss | |
| 17 | 11/02 | 10:29 | 50 | 40 | 71 | 30.20 | NNE | 4 | 0.00 |
| 18 | miss | miss | miss | miss | miss | miss | miss | miss | |
| 19 | 11/02 | 10:27 | 50 | 40 | 70 | 30.20 | NE | 0 | 0.00 |
| 20 | miss | miss | miss | miss | miss | miss | miss | miss | |
| 21 | 11/02 | 10:25 | 50 | 40 | 69 | 30.20 | ENE | 4 | 0.00 |
| 22 | miss | miss | miss | miss | miss | miss | miss | miss | |
| 23 | 11/02 | 10:23 | 49 | 39 | 70 | 30.20 | NE | 4 | 0.00 |
| 24 | miss | miss | miss | miss | miss | miss | miss | miss | |
| 25 | 11/02 | 10:21 | 49 | 39 | 69 | 30.20 | NE | 0 | 0.00 |
| 26 | miss | miss | miss | miss | miss | miss | miss | miss | |
| 27 | 11/02 | 10:21 | 49 | 39 | 69 | 30.20 | NE | 0 | 0.00 |
| 28 | miss | miss | miss | miss | miss | miss | miss | miss | |
| 29 | 11/02 | 10:21 | 49 | 39 | 69 | 30.20 | NE | 0 | 0.00 |
| 30 | miss | miss | miss | miss | miss | miss | miss | miss | |
| 31 | 11/02 | 10:21 | 49 | 39 | 69 | 30.20 | NE | 0 | 0.00 |
| 32 | miss | miss | miss | miss | miss | miss | miss | miss | |
| 33 | 11/02 | 10:21 | 49 | 39 | 69 | 30.20 | NE | 0 | 0.00 |
| 34 | miss | miss | miss | miss | miss | miss | miss | miss | |
| 35 | 11/02 | 10:21 | 49 | 39 | 69 | 30.20 | NE | 0 | 0.00 |
| 36 | miss | miss | miss | miss | miss | miss | miss | miss | |
| 37 | 11/02 | 10:21 | 49 | 39 | 69 | 30.20 | NE | 0 | 0.00 |
| 38 | miss | miss | miss | miss | miss | miss | miss | miss | |
| 39 | 11/02 | 10:00 | 49 | 39 | 69 | 30.20 | ENE | 5 | 0.00 |
| 40 | 11/02 | 09:00 | 48 | 39 | 71 | 30.21 | N | 2 | 0.00 |
| 41 | 11/02 | 08:00 | 45 | 37 | 76 | 30.20 | N | 0 | 0.00 |
| 42 | 11/02 | 07:00 | 45 | 37 | 76 | 30.19 | NNE | 0 | 0.00 |
| 43 | 11/02 | 06:00 | 44 | 37 | 77 | 30.18 | ENE | 0 | 0.00 |
| 44 | 11/02 | 05:00 | 44 | 36 | 76 | 30.18 | NE | 0 | 0.00 |
| 45 | 11/02 | 04:00 | 45 | 37 | 75 | 30.17 | NE | 2 | 0.00 |
| 46 | 11/02 | 03:00 | 46 | 38 | 74 | 30.18 | NNE | 0 | 0.00 |
| 47 | 11/02 | 02:00 | 46 | 37 | 73 | 30.19 | ENE | 3 | 0.00 |
| 48 | 11/02 | 01:00 | 46 | 38 | 75 | 30.19 | NE | 9 | 0.00 |
| 49 | 11/02 | 00:00 | 41 | 38 | 91 | 30.18 | NE | 5 | 0.00 |
| 50 | 11/01 | 23:00 | 42 | 38 | 86 | 30.19 | N | 0 | 0.00 |
| 51 | 11/01 | 22:00 | 43 | 38 | 85 | 30.19 | NNW | 0 | 0.00 |
| 52 | 11/01 | 21:00 | 45 | 38 | 79 | 30.18 | NNW | 0 | 0.00 |
| 53 | 11/01 | 20:00 | 49 | 39 | 69 | 30.17 | NNW | 0 | 0.00 |
| 54 | 11/01 | 19:00 | 50 | 39 | 67 | 30.16 | NNW | 0 | 0.00 |
| 55 | 11/01 | 18:00 | 53 | 39 | 59 | 30.14 | NNE | 0 | 0.00 |
| 56 | 11/01 | 17:00 | 55 | 39 | 56 | 30.12 | NE | 2 | 0.00 |
| 57 | 11/01 | 16:00 | 56 | 41 | 59 | 30.11 | N | 9 | 0.00 |
| 58 | 11/01 | 15:00 | 54 | 41 | 63 | 30.11 | NNE | 3 | 0.00 |
| 59 | 11/01 | 14:00 | 53 | 42 | 68 | 30.11 | N | 7 | 0.00 |
| 60 | 11/01 | 13:00 | 52 | 42 | 71 | 30.12 | NNE | 0 | 0.00 |
| 61 | 11/01 | 12:00 | 51 | 43 | 76 | 30.12 | NNE | 5 | 0.00 |
| 62 | 11/01 | 11:00 | 50 | 44 | 82 | 30.14 | W | 0 | 0.00 |
| 63 | 11/01 | 10:00 | 49 | 45 | 88 | 30.12 | N | 5 | 0.00 |
| 64 | 11/01 | 09:00 | 48 | 48 | 100 | 30.13 | ESE | 0 | 0.00 |
| 65 | 11/01 | 08:00 | 48 | 47 | 99 | 30.06 | SE | 0 | 0.00 |
| 66 | 11/01 | 07:00 | 48 | 47 | 98 | 30.12 | W | 2 | 0.02 |
| 67 | 11/01 | 06:00 | 48 | 46 | 96 | 30.08 | WSW | 0 | 0.12 |
| 68 | 11/01 | 05:00 | 49 | 46 | 92 | 30.09 | W | 4 | 0.06 |
| 69 | 11/01 | 04:00 | 52 | 46 | 81 | 30.03 | WSW | 0 | 0.00 |
| 70 | 11/01 | 03:00 | 53 | 44 | 73 | 30.00 | NNW | 6 | 0.01 |
| 71 | 11/01 | 02:00 | 55 | 47 | 76 | 29.95 | NE | 2 | 0.00 |
| 72 | 11/01 | 01:00 | 56 | 47 | 73 | 29.96 | NW | 4 | 0.00 |